Time,TemperatureF,DewpointF,PressureIn,WindDirection,WindDirectionDegrees,WindSpeedMPH,WindSpeedGustMPH,Humidity,HourlyPrecipIn,Conditions,Clouds,dailyrainin,SoftwareType,DateUTC
2013-06-26 00:01:00,71.0,70.0,-100.00,WSW,245,1.0,10.0,98,-99.99,,,-99.99,,2013-06-26 04:01:00,
2013-06-26 00:12:00,71.0,70.0,-100.00,West,280,7.0,9.0,98,-99.99,,,-99.99,,2013-06-26 04:12:00,
2013-06-26 00:22:00,70.0,70.0,-100.00,West,260,4.0,9.0,98,-99.99,,,-99.99,,2013-06-26 04:22:00,
2013-06-26 00:33:00,70.0,70.0,-100.00,West,260,4.0,9.0,98,-99.99,,,-99.99,,2013-06-26 04:33:00,
2013-06-26 00:43:00,69.0,69.0,-100.00,WNW,295,9.0,16.0,98,-99.99,,,-99.99,,2013-06-26 04:43:00,
2013-06-26 01:11:00,69.0,69.0,-100.00,WNW,285,5.0,8.0,99,-99.99,,,-99.99,,2013-06-26 05:11:00,
2013-06-26 01:34:00,69.0,69.0,-100.00,WNW,285,1.0,5.0,99,-99.99,,,-99.99,,2013-06-26 05:34:00,
2013-06-26 01:43:00,68.0,68.0,-100.00,North,350,4.0,6.0,99,-99.99,,,-99.99,,2013-06-26 05:43:00,
2013-06-26 02:34:00,68.0,68.0,-100.00,WSW,255,6.0,11.0,99,-99.99,,,-99.99,,2013-06-26 06:34:00,
2013-06-26 02:43:00,68.0,68.0,-100.00,WSW,245,6.0,12.0,99,-99.99,,,-99.99,,2013-06-26 06:43:00,
2013-06-26 02:53:00,68.0,68.0,-100.00,SW,220,6.0,11.0,99,-99.99,,,-99.99,,2013-06-26 06:53:00,
2013-06-26 03:01:00,68.0,68.0,-100.00,WSW,250,6.0,9.0,99,-99.99,,,-99.99,,2013-06-26 07:01:00,
2013-06-26 03:11:00,68.0,68.0,-100.00,WNW,295,3.0,8.0,99,-99.99,,,-99.99,,2013-06-26 07:11:00,
2013-06-26 03:33:00,68.0,68.0,-100.00,SW,225,2.0,5.0,99,-99.99,,,-99.99,,2013-06-26 07:33:00,
2013-06-26 03:43:00,68.0,68.0,-100.00,SSW,210,3.0,6.0,99,-99.99,,,-99.99,,2013-06-26 07:43:00,
2013-06-26 03:53:00,69.0,68.0,-100.00,West,265,2.0,5.0,99,-99.99,,,-99.99,,2013-06-26 07:53:00,
2013-06-26 04:01:00,69.0,68.0,-100.00,SW,215,1.0,4.0,99,-99.99,,,-99.99,,2013-06-26 08:01:00,
2013-06-26 04:33:00,69.0,69.0,-100.00,ENE,75,1.0,2.0,99,-99.99,,,-99.99,,2013-06-26 08:33:00,
2013-06-26 04:42:00,69.0,69.0,-100.00,ENE,70,1.0,4.0,99,-99.99,,,-99.99,,2013-06-26 08:42:00,
2013-06-26 04:52:00,69.0,69.0,-100.00,SE,140,2.0,5.0,99,-99.99,,,-99.99,,2013-06-26 08:52:00,
2013-06-26 05:01:00,69.0,69.0,-100.00,South,175,4.0,4.0,99,-99.99,,,-99.99,,2013-06-26 09:01:00,
2013-06-26 05:22:00,69.0,69.0,-100.00,South,185,4.0,4.0,99,-99.99,,,-99.99,,2013-06-26 09:22:00,
2013-06-26 05:33:00,69.0,69.0,-100.00,South,185,4.0,4.0,99,-99.99,,,-99.99,,2013-06-26 09:33:00,
2013-06-26 05:43:00,69.0,69.0,-100.00,South,185,3.0,4.0,99,-99.99,,,-99.99,,2013-06-26 09:43:00,
2013-06-26 06:01:00,69.0,69.0,-100.00,SW,220,2.0,6.0,99,-99.99,,,-99.99,,2013-06-26 10:01:00,
2013-06-26 06:12:00,69.0,69.0,-100.00,SW,220,2.0,6.0,99,-99.99,,,-99.99,,2013-06-26 10:12:00,
2013-06-26 06:22:00,69.0,69.0,-100.00,SW,220,2.0,6.0,99,-99.99,,,-99.99,,2013-06-26 10:22:00,
2013-06-26 06:34:00,69.0,69.0,-100.00,SSW,205,2.0,5.0,99,-99.99,,,-99.99,,2013-06-26 10:34:00,
2013-06-26 06:43:00,69.0,69.0,-100.00,SSW,195,3.0,6.0,99,-99.99,,,-99.99,,2013-06-26 10:43:00,
2013-06-26 06:53:00,69.0,69.0,-100.00,South,190,4.0,6.0,99,-99.99,,,-99.99,,2013-06-26 10:53:00,
2013-06-26 07:12:00,69.0,69.0,-100.00,SSW,200,4.0,6.0,99,-99.99,,,-99.99,,2013-06-26 11:12:00,
2013-06-26 07:22:00,69.0,69.0,-100.00,SSW,195,4.0,6.0,99,-99.99,,,-99.99,,2013-06-26 11:22:00,
2013-06-26 07:33:00,69.0,69.0,-100.00,SSW,195,4.0,6.0,99,-99.99,,,-99.99,,2013-06-26 11:33:00,
2013-06-26 07:44:00,70.0,69.0,-100.00,SW,230,2.0,5.0,99,-99.99,,,-99.99,,2013-06-26 11:44:00,
2013-06-26 07:52:00,70.0,69.0,-100.00,SW,230,2.0,5.0,99,-99.99,,,-99.99,,2013-06-26 11:52:00,
2013-06-26 08:02:00,70.0,69.0,-100.00,SW,230,2.0,5.0,99,-99.99,,,-99.99,,2013-06-26 12:02:00,
2013-06-26 08:12:00,70.0,70.0,-100.00,WSW,250,3.0,6.0,99,-99.99,,,-99.99,,2013-06-26 12:12:00,
2013-06-26 08:22:00,70.0,70.0,-100.00,SSW,200,4.0,7.0,99,-99.99,,,-99.99,,2013-06-26 12:22:00,
2013-06-26 08:33:00,70.0,70.0,-100.00,SSW,195,4.0,12.0,99,-99.99,,,-99.99,,2013-06-26 12:33:00,
2013-06-26 08:43:00,71.0,71.0,-100.00,SSW,205,6.0,11.0,98,-99.99,,,-99.99,,2013-06-26 12:43:00,
2013-06-26 09:02:00,71.0,71.0,-100.00,SW,215,9.0,14.0,98,-99.99,,,-99.99,,2013-06-26 13:02:00,
2013-06-26 09:43:00,72.0,72.0,-100.00,SW,235,6.0,13.0,98,-99.99,,,-99.99,,2013-06-26 13:43:00,
2013-06-26 10:12:00,73.0,73.0,-100.00,WNW,290,4.0,12.0,97,-99.99,,,-99.99,,2013-06-26 14:12:00,
2013-06-26 10:34:00,74.0,73.0,-100.00,WSW,250,7.0,12.0,96,-99.99,,,-99.99,,2013-06-26 14:34:00,
2013-06-26 10:42:00,75.0,74.0,-100.00,West,280,3.0,9.0,96,-99.99,,,-99.99,,2013-06-26 14:42:00,
2013-06-26 11:02:00,76.0,74.0,-100.00,West,270,5.0,9.0,95,-99.99,,,-99.99,,2013-06-26 15:02:00,
2013-06-26 11:34:00,77.0,75.0,-100.00,WSW,245,2.0,12.0,94,-99.99,,,-99.99,,2013-06-26 15:34:00,
2013-06-26 11:44:00,77.0,75.0,-100.00,WNW,285,5.0,11.0,93,-99.99,,,-99.99,,2013-06-26 15:44:00,
2013-06-26 12:01:00,78.0,75.0,-100.00,West,280,6.0,13.0,92,-99.99,,,-99.99,,2013-06-26 16:01:00,
2013-06-26 13:02:00,78.0,75.0,-100.00,West,280,7.0,11.0,91,-99.99,,,-99.99,,2013-06-26 17:02:00,
2013-06-26 13:11:00,78.0,75.0,-100.00,WNW,295,6.0,12.0,91,-99.99,,,-99.99,,2013-06-26 17:11:00,
2013-06-26 13:23:00,77.0,74.0,-100.00,West,270,10.0,19.0,91,-99.99,,,-99.99,,2013-06-26 17:23:00,
2013-06-26 13:33:00,77.0,74.0,-100.00,WNW,295,6.0,14.0,91,-99.99,,,-99.99,,2013-06-26 17:33:00,
2013-06-26 13:43:00,78.0,75.0,-100.00,NNW,330,6.0,10.0,90,-99.99,,,-99.99,,2013-06-26 17:43:00,
2013-06-26 14:01:00,79.0,76.0,-100.00,WSW,255,4.0,9.0,90,-99.99,,,-99.99,,2013-06-26 18:01:00,
2013-06-26 14:43:00,80.0,76.0,-100.00,NE,45,1.0,6.0,85,-99.99,,,-99.99,,2013-06-26 18:43:00,
2013-06-26 15:02:00,82.0,76.0,-100.00,SE,140,1.0,3.0,83,-99.99,,,-99.99,,2013-06-26 19:02:00,
2013-06-26 16:43:00,84.0,73.0,-100.00,SW,235,4.0,7.0,68,-99.99,,,-99.99,,2013-06-26 20:43:00,
2013-06-26 16:52:00,84.0,73.0,-100.00,SW,235,4.0,7.0,68,-99.99,,,-99.99,,2013-06-26 20:52:00,
2013-06-26 17:02:00,84.0,73.0,-100.00,SW,235,4.0,7.0,68,-99.99,,,-99.99,,2013-06-26 21:02:00,
2013-06-26 17:12:00,84.0,73.0,-100.00,West,260,1.0,7.0,67,-99.99,,,-99.99,,2013-06-26 21:12:00,
2013-06-26 17:43:00,84.0,73.0,-100.00,SSW,205,3.0,7.0,69,-99.99,,,-99.99,,2013-06-26 21:43:00,
2013-06-26 18:01:00,85.0,74.0,-100.00,SE,135,4.0,6.0,69,-99.99,,,-99.99,,2013-06-26 22:01:00,
2013-06-26 18:11:00,84.0,73.0,-100.00,SSW,210,3.0,6.0,69,-99.99,,,-99.99,,2013-06-26 22:11:00,
2013-06-26 18:22:00,84.0,73.0,-100.00,SSW,210,3.0,6.0,69,-99.99,,,-99.99,,2013-06-26 22:22:00,
2013-06-26 18:34:00,85.0,77.0,-100.00,ENE,65,7.0,10.0,77,-99.99,,,-99.99,,2013-06-26 22:34:00,
2013-06-26 18:43:00,83.0,78.0,-100.00,ENE,60,6.0,12.0,83,-99.99,,,-99.99,,2013-06-26 22:43:00,
2013-06-26 19:34:00,82.0,77.0,-100.00,ESE,115,6.0,11.0,84,-99.99,,,-99.99,,2013-06-26 23:34:00,
2013-06-26 19:43:00,81.0,77.0,-100.00,East,90,4.0,12.0,85,-99.99,,,-99.99,,2013-06-26 23:43:00,
2013-06-26 19:52:00,81.0,77.0,-100.00,ENE,65,4.0,9.0,86,-99.99,,,-99.99,,2013-06-26 23:52:00,
2013-06-26 20:01:00,81.0,77.0,-100.00,ESE,110,7.0,11.0,86,-99.99,,,-99.99,,2013-06-27 00:01:00,
2013-06-26 20:12:00,80.0,77.0,-100.00,SSW,195,9.0,12.0,88,-99.99,,,-99.99,,2013-06-27 00:12:00,
2013-06-26 20:22:00,80.0,77.0,-100.00,SSW,195,9.0,12.0,88,-99.99,,,-99.99,,2013-06-27 00:22:00,
2013-06-26 20:33:00,75.0,74.0,-100.00,WSW,240,5.0,11.0,95,-99.99,,,-99.99,,2013-06-27 00:33:00,
2013-06-26 20:43:00,74.0,73.0,-100.00,SE,145,1.0,7.0,96,-99.99,,,-99.99,,2013-06-27 00:43:00,
2013-06-26 20:53:00,74.0,73.0,-100.00,South,175,0.0,4.0,96,-99.99,,,-99.99,,2013-06-27 00:53:00,
2013-06-26 21:01:00,73.0,73.0,-100.00,NNW,340,1.0,2.0,97,-99.99,,,-99.99,,2013-06-27 01:01:00,
2013-06-26 21:11:00,73.0,73.0,-100.00,North,5,2.0,4.0,97,-99.99,,,-99.99,,2013-06-27 01:11:00,
2013-06-26 21:32:00,73.0,73.0,-100.00,NNE,30,2.0,3.0,97,-99.99,,,-99.99,,2013-06-27 01:32:00,
2013-06-26 21:43:00,74.0,73.0,-100.00,ENE,75,0.0,2.0,98,-99.99,,,-99.99,,2013-06-27 01:43:00,
2013-06-26 22:01:00,73.0,73.0,-100.00,North,5,2.0,4.0,98,-99.99,,,-99.99,,2013-06-27 02:01:00,
2013-06-26 22:32:00,74.0,73.0,-100.00,ENE,75,1.0,4.0,98,-99.99,,,-99.99,,2013-06-27 02:32:00,
2013-06-26 22:42:00,73.0,73.0,-100.00,North,0,1.0,2.0,98,-99.99,,,-99.99,,2013-06-27 02:42:00,
2013-06-26 23:02:00,74.0,73.0,-100.00,SE,135,1.0,3.0,98,-99.99,,,-99.99,,2013-06-27 03:02:00,
2013-06-26 23:11:00,74.0,73.0,-100.00,SSE,165,2.0,4.0,98,-99.99,,,-99.99,,2013-06-27 03:11:00,
2013-06-26 23:42:00,73.0,73.0,-100.00,ESE,115,4.0,6.0,98,-99.99,,,-99.99,,2013-06-27 03:42:00,